sensor_id;sensor_type;location;lat;lon;timestamp;temperature;humidity
9640;DHT22;51745;50.872;4.732;2023-04-03T00:02:28;4.20;99.90
9640;DHT22;51745;50.872;4.732;2023-04-03T00:05:18;1.80;99.90
9640;DHT22;51745;50.872;4.732;2023-04-03T00:08:06;2.10;99.90
9640;DHT22;51745;50.872;4.732;2023-04-03T00:10:56;1.80;99.90
9640;DHT22;51745;50.872;4.732;2023-04-03T00:13:44;1.60;99.90
9640;DHT22;51745;50.872;4.732;2023-04-03T00:16:31;1.70;99.90
9640;DHT22;51745;50.872;4.732;2023-04-03T00:19:19;1.70;99.90
9640;DHT22;51745;50.872;4.732;2023-04-03T00:22:08;1.80;99.90
9640;DHT22;51745;50.872;4.732;2023-04-03T00:24:56;2.30;99.90
9640;DHT22;51745;50.872;4.732;2023-04-03T00:27:43;2.00;99.90
9640;DHT22;51745;50.872;4.732;2023-04-03T00:30:31;2.10;99.90
9640;DHT22;51745;50.872;4.732;2023-04-03T00:33:21;2.00;99.90
9640;DHT22;51745;50.872;4.732;2023-04-03T00:36:12;2.00;99.90
9640;DHT22;51745;50.872;4.732;2023-04-03T00:39:01;2.10;99.90
9640;DHT22;51745;50.872;4.732;2023-04-03T00:41:48;2.00;99.90
9640;DHT22;51745;50.872;4.732;2023-04-03T00:47:42;1.90;99.90
9640;DHT22;51745;50.872;4.732;2023-04-03T00:50:33;1.90;99.90
9640;DHT22;51745;50.872;4.732;2023-04-03T00:53:23;1.80;99.90
9640;DHT22;51745;50.872;4.732;2023-04-03T00:56:15;1.80;99.90
9640;DHT22;51745;50.872;4.732;2023-04-03T00:59:07;1.90;99.90
9640;DHT22;51745;50.872;4.732;2023-04-03T01:01:57;1.80;99.90
9640;DHT22;51745;50.872;4.732;2023-04-03T01:04:45;1.80;99.90
9640;DHT22;51745;50.872;4.732;2023-04-03T01:07:34;1.80;99.90
9640;DHT22;51745;50.872;4.732;2023-04-03T01:10:23;1.90;99.90
9640;DHT22;51745;50.872;4.732;2023-04-03T01:13:23;1.90;99.90
9640;DHT22;51745;50.872;4.732;2023-04-03T01:16:11;1.90;99.90
9640;DHT22;51745;50.872;4.732;2023-04-03T01:18:59;1.90;99.90
9640;DHT22;51745;50.872;4.732;2023-04-03T01:21:53;2.00;99.90
9640;DHT22;51745;50.872;4.732;2023-04-03T01:24:41;2.00;99.90
9640;DHT22;51745;50.872;4.732;2023-04-03T01:27:29;2.10;99.90
9640;DHT22;51745;50.872;4.732;2023-04-03T01:30:20;1.90;99.90
9640;DHT22;51745;50.872;4.732;2023-04-03T01:33:09;2.30;99.90
9640;DHT22;51745;50.872;4.732;2023-04-03T01:35:57;1.90;99.90
9640;DHT22;51745;50.872;4.732;2023-04-03T01:38:46;1.80;99.90
9640;DHT22;51745;50.872;4.732;2023-04-03T01:41:33;1.70;99.90
9640;DHT22;51745;50.872;4.732;2023-04-03T01:44:32;1.80;99.90
9640;DHT22;51745;50.872;4.732;2023-04-03T01:47:20;1.30;99.90
9640;DHT22;51745;50.872;4.732;2023-04-03T01:50:10;1.50;99.90
9640;DHT22;51745;50.872;4.732;2023-04-03T01:52:58;1.40;99.90
9640;DHT22;51745;50.872;4.732;2023-04-03T01:55:45;1.40;99.90
9640;DHT22;51745;50.872;4.732;2023-04-03T01:58:33;1.40;99.90
9640;DHT22;51745;50.872;4.732;2023-04-03T02:01:20;2.30;99.90
9640;DHT22;51745;50.872;4.732;2023-04-03T02:04:09;1.20;99.90
9640;DHT22;51745;50.872;4.732;2023-04-03T02:06:57;1.20;99.90
9640;DHT22;51745;50.872;4.732;2023-04-03T02:09:45;1.40;99.90
9640;DHT22;51745;50.872;4.732;2023-04-03T02:12:33;1.00;99.90
9640;DHT22;51745;50.872;4.732;2023-04-03T02:15:20;1.00;99.90
9640;DHT22;51745;50.872;4.732;2023-04-03T02:18:09;0.90;99.90
9640;DHT22;51745;50.872;4.732;2023-04-03T02:20:56;0.70;99.90
9640;DHT22;51745;50.872;4.732;2023-04-03T02:23:46;0.80;99.90
9640;DHT22;51745;50.872;4.732;2023-04-03T02:26:33;0.70;99.90
9640;DHT22;51745;50.872;4.732;2023-04-03T02:29:20;0.70;99.90
9640;DHT22;51745;50.872;4.732;2023-04-03T02:32:09;0.60;99.90
9640;DHT22;51745;50.872;4.732;2023-04-03T02:34:58;0.50;99.90
9640;DHT22;51745;50.872;4.732;2023-04-03T02:37:46;1.30;99.90
9640;DHT22;51745;50.872;4.732;2023-04-03T02:40:35;0.70;99.90
9640;DHT22;51745;50.872;4.732;2023-04-03T02:43:23;0.70;99.90
9640;DHT22;51745;50.872;4.732;2023-04-03T02:46:12;0.60;99.90
9640;DHT22;51745;50.872;4.732;2023-04-03T02:49:02;0.60;99.90
9640;DHT22;51745;50.872;4.732;2023-04-03T02:51:50;0.00;99.90
9640;DHT22;51745;50.872;4.732;2023-04-03T02:54:40;0.70;99.90
9640;DHT22;51745;50.872;4.732;2023-04-03T02:57:31;0.60;99.90
9640;DHT22;51745;50.872;4.732;2023-04-03T03:00:19;0.70;99.90
9640;DHT22;51745;50.872;4.732;2023-04-03T03:03:06;0.40;99.90
9640;DHT22;51745;50.872;4.732;2023-04-03T03:06:00;0.70;99.90
9640;DHT22;51745;50.872;4.732;2023-04-03T03:08:48;0.70;99.90
9640;DHT22;51745;50.872;4.732;2023-04-03T03:11:36;0.70;99.90
9640;DHT22;51745;50.872;4.732;2023-04-03T03:14:26;0.80;99.90
9640;DHT22;51745;50.872;4.732;2023-04-03T03:17:14;0.70;99.90
9640;DHT22;51745;50.872;4.732;2023-04-03T03:20:02;0.70;99.90
9640;DHT22;51745;50.872;4.732;2023-04-03T03:22:49;0.70;99.90
9640;DHT22;51745;50.872;4.732;2023-04-03T03:25:37;0.70;99.90
9640;DHT22;51745;50.872;4.732;2023-04-03T03:28:28;0.70;99.90
9640;DHT22;51745;50.872;4.732;2023-04-03T03:31:22;0.80;99.90
9640;DHT22;51745;50.872;4.732;2023-04-03T03:34:10;0.80;99.90
9640;DHT22;51745;50.872;4.732;2023-04-03T03:36:58;1.00;99.90
9640;DHT22;51745;50.872;4.732;2023-04-03T03:39:47;0.80;99.90
9640;DHT22;51745;50.872;4.732;2023-04-03T03:42:35;1.10;99.90
9640;DHT22;51745;50.872;4.732;2023-04-03T03:45:22;1.00;99.90
9640;DHT22;51745;50.872;4.732;2023-04-03T03:48:12;0.90;99.90
9640;DHT22;51745;50.872;4.732;2023-04-03T03:50:59;1.00;99.90
9640;DHT22;51745;50.872;4.732;2023-04-03T03:53:51;1.00;99.90
9640;DHT22;51745;50.872;4.732;2023-04-03T03:56:39;1.00;99.90
9640;DHT22;51745;50.872;4.732;2023-04-03T03:59:30;-0.50;99.90
9640;DHT22;51745;50.872;4.732;2023-04-03T04:02:18;0.80;99.90
9640;DHT22;51745;50.872;4.732;2023-04-03T04:05:08;0.70;99.90
9640;DHT22;51745;50.872;4.732;2023-04-03T04:07:55;0.80;99.90
9640;DHT22;51745;50.872;4.732;2023-04-03T04:10:44;0.70;99.90
9640;DHT22;51745;50.872;4.732;2023-04-03T04:13:34;0.70;99.90
9640;DHT22;51745;50.872;4.732;2023-04-03T04:16:22;0.70;99.90
9640;DHT22;51745;50.872;4.732;2023-04-03T04:19:14;0.60;99.90
9640;DHT22;51745;50.872;4.732;2023-04-03T04:22:04;0.70;99.90
9640;DHT22;51745;50.872;4.732;2023-04-03T04:24:52;0.70;99.90
9640;DHT22;51745;50.872;4.732;2023-04-03T04:27:40;0.70;99.90
9640;DHT22;51745;50.872;4.732;2023-04-03T04:30:27;-0.20;99.90
9640;DHT22;51745;50.872;4.732;2023-04-03T04:33:16;0.70;99.90
9640;DHT22;51745;50.872;4.732;2023-04-03T04:36:04;0.70;99.90
9640;DHT22;51745;50.872;4.732;2023-04-03T04:38:54;0.60;99.90
9640;DHT22;51745;50.872;4.732;2023-04-03T04:41:44;0.70;99.90
9640;DHT22;51745;50.872;4.732;2023-04-03T04:44:32;0.70;99.90
9640;DHT22;51745;50.872;4.732;2023-04-03T04:47:20;0.70;99.90
9640;DHT22;51745;50.872;4.732;2023-04-03T04:50:08;1.10;99.90
9640;DHT22;51745;50.872;4.732;2023-04-03T04:52:56;0.70;99.90
9640;DHT22;51745;50.872;4.732;2023-04-03T04:55:46;0.40;99.90
9640;DHT22;51745;50.872;4.732;2023-04-03T04:58:34;0.40;99.90
9640;DHT22;51745;50.872;4.732;2023-04-03T05:01:22;0.30;99.90
9640;DHT22;51745;50.872;4.732;2023-04-03T05:04:17;0.10;99.90
9640;DHT22;51745;50.872;4.732;2023-04-03T05:07:11;-0.10;99.90
9640;DHT22;51745;50.872;4.732;2023-04-03T05:09:58;-0.20;99.90
9640;DHT22;51745;50.872;4.732;2023-04-03T05:12:48;0.50;99.90
9640;DHT22;51745;50.872;4.732;2023-04-03T05:15:35;-0.20;99.90
9640;DHT22;51745;50.872;4.732;2023-04-03T05:18:26;-0.20;99.90
9640;DHT22;51745;50.872;4.732;2023-04-03T05:21:16;-0.10;99.90
9640;DHT22;51745;50.872;4.732;2023-04-03T05:24:06;-0.10;99.90
9640;DHT22;51745;50.872;4.732;2023-04-03T05:26:58;-0.10;99.90
9640;DHT22;51745;50.872;4.732;2023-04-03T05:29:52;-0.10;99.90
9640;DHT22;51745;50.872;4.732;2023-04-03T05:32:41;-0.10;99.90
9640;DHT22;51745;50.872;4.732;2023-04-03T05:35:49;2.30;99.90
9640;DHT22;51745;50.872;4.732;2023-04-03T05:38:42;-0.10;99.90
9640;DHT22;51745;50.872;4.732;2023-04-03T05:41:30;0.20;99.90
9640;DHT22;51745;50.872;4.732;2023-04-03T05:44:19;0.20;99.90
9640;DHT22;51745;50.872;4.732;2023-04-03T05:47:09;0.20;99.90
9640;DHT22;51745;50.872;4.732;2023-04-03T05:49:57;0.50;99.90
9640;DHT22;51745;50.872;4.732;2023-04-03T05:52:45;0.70;99.90
9640;DHT22;51745;50.872;4.732;2023-04-03T05:55:33;0.50;99.90
9640;DHT22;51745;50.872;4.732;2023-04-03T05:58:22;0.60;99.90
9640;DHT22;51745;50.872;4.732;2023-04-03T06:01:11;0.70;99.90
9640;DHT22;51745;50.872;4.732;2023-04-03T06:04:00;0.40;99.90
9640;DHT22;51745;50.872;4.732;2023-04-03T06:06:50;2.00;99.90
9640;DHT22;51745;50.872;4.732;2023-04-03T06:09:38;0.90;99.90
9640;DHT22;51745;50.872;4.732;2023-04-03T06:12:25;1.00;99.90
9640;DHT22;51745;50.872;4.732;2023-04-03T06:15:17;1.10;99.90
9640;DHT22;51745;50.872;4.732;2023-04-03T06:18:05;1.10;99.90
9640;DHT22;51745;50.872;4.732;2023-04-03T06:20:54;1.10;99.90
9640;DHT22;51745;50.872;4.732;2023-04-03T06:23:45;1.20;99.90
9640;DHT22;51745;50.872;4.732;2023-04-03T06:26:34;1.20;99.90
9640;DHT22;51745;50.872;4.732;2023-04-03T06:29:22;1.30;99.90
9640;DHT22;51745;50.872;4.732;2023-04-03T06:32:10;1.10;99.90
9640;DHT22;51745;50.872;4.732;2023-04-03T06:34:58;1.40;99.90
9640;DHT22;51745;50.872;4.732;2023-04-03T06:37:47;1.40;99.90
9640;DHT22;51745;50.872;4.732;2023-04-03T06:40:35;1.10;99.90
9640;DHT22;51745;50.872;4.732;2023-04-03T06:43:31;1.60;99.90
9640;DHT22;51745;50.872;4.732;2023-04-03T06:46:21;1.50;99.90
9640;DHT22;51745;50.872;4.732;2023-04-03T06:49:10;1.50;99.90
9640;DHT22;51745;50.872;4.732;2023-04-03T06:51:59;1.60;99.90
9640;DHT22;51745;50.872;4.732;2023-04-03T06:54:53;1.80;99.90
9640;DHT22;51745;50.872;4.732;2023-04-03T06:57:43;-0.50;99.90
9640;DHT22;51745;50.872;4.732;2023-04-03T07:00:31;1.70;99.90
9640;DHT22;51745;50.872;4.732;2023-04-03T07:03:19;1.80;99.90
9640;DHT22;51745;50.872;4.732;2023-04-03T07:06:08;1.90;99.90
9640;DHT22;51745;50.872;4.732;2023-04-03T07:08:57;1.90;99.90
9640;DHT22;51745;50.872;4.732;2023-04-03T07:11:46;2.00;99.90
9640;DHT22;51745;50.872;4.732;2023-04-03T07:14:34;2.10;99.90
9640;DHT22;51745;50.872;4.732;2023-04-03T07:17:23;1.20;99.90
9640;DHT22;51745;50.872;4.732;2023-04-03T07:20:11;2.40;99.90
9640;DHT22;51745;50.872;4.732;2023-04-03T07:23:05;2.70;99.90
9640;DHT22;51745;50.872;4.732;2023-04-03T07:25:53;2.50;99.90
9640;DHT22;51745;50.872;4.732;2023-04-03T07:28:45;2.70;99.90
9640;DHT22;51745;50.872;4.732;2023-04-03T07:31:34;2.70;99.90
9640;DHT22;51745;50.872;4.732;2023-04-03T07:34:22;4.90;99.90
9640;DHT22;51745;50.872;4.732;2023-04-03T07:37:10;2.90;99.90
9640;DHT22;51745;50.872;4.732;2023-04-03T07:39:59;1.90;99.90
9640;DHT22;51745;50.872;4.732;2023-04-03T07:42:49;5.50;99.90
9640;DHT22;51745;50.872;4.732;2023-04-03T07:45:39;3.10;99.90
9640;DHT22;51745;50.872;4.732;2023-04-03T07:48:27;3.20;99.90
9640;DHT22;51745;50.872;4.732;2023-04-03T07:51:15;3.30;99.90
9640;DHT22;51745;50.872;4.732;2023-04-03T07:54:04;3.30;99.90
9640;DHT22;51745;50.872;4.732;2023-04-03T07:56:51;3.40;99.90
9640;DHT22;51745;50.872;4.732;2023-04-03T07:59:39;3.50;99.90
9640;DHT22;51745;50.872;4.732;2023-04-03T08:02:30;3.60;99.90
9640;DHT22;51745;50.872;4.732;2023-04-03T08:05:18;3.70;99.90
9640;DHT22;51745;50.872;4.732;2023-04-03T08:08:07;4.00;99.90
9640;DHT22;51745;50.872;4.732;2023-04-03T08:10:57;3.90;99.90
9640;DHT22;51745;50.872;4.732;2023-04-03T08:13:45;4.00;99.90
9640;DHT22;51745;50.872;4.732;2023-04-03T08:16:34;3.90;99.90
9640;DHT22;51745;50.872;4.732;2023-04-03T08:19:23;4.10;99.90
9640;DHT22;51745;50.872;4.732;2023-04-03T08:22:12;4.30;99.90
9640;DHT22;51745;50.872;4.732;2023-04-03T08:25:00;4.40;99.90
9640;DHT22;51745;50.872;4.732;2023-04-03T08:27:49;4.50;99.90
9640;DHT22;51745;50.872;4.732;2023-04-03T08:30:38;4.30;99.90
9640;DHT22;51745;50.872;4.732;2023-04-03T08:33:25;4.60;99.90
9640;DHT22;51745;50.872;4.732;2023-04-03T08:36:19;4.70;99.90
9640;DHT22;51745;50.872;4.732;2023-04-03T08:39:07;4.70;99.90
9640;DHT22;51745;50.872;4.732;2023-04-03T08:41:56;4.90;99.90
9640;DHT22;51745;50.872;4.732;2023-04-03T08:44:46;4.80;99.90
9640;DHT22;51745;50.872;4.732;2023-04-03T08:47:36;5.00;99.90
9640;DHT22;51745;50.872;4.732;2023-04-03T08:50:26;5.10;99.90
9640;DHT22;51745;50.872;4.732;2023-04-03T08:53:17;5.20;99.90
9640;DHT22;51745;50.872;4.732;2023-04-03T08:56:08;5.30;99.90
9640;DHT22;51745;50.872;4.732;2023-04-03T08:58:56;5.60;99.90
9640;DHT22;51745;50.872;4.732;2023-04-03T09:01:46;5.30;99.90
9640;DHT22;51745;50.872;4.732;2023-04-03T09:04:34;5.50;99.90
9640;DHT22;51745;50.872;4.732;2023-04-03T09:07:25;5.60;99.90
9640;DHT22;51745;50.872;4.732;2023-04-03T09:10:23;5.70;99.90
9640;DHT22;51745;50.872;4.732;2023-04-03T09:13:13;5.80;99.90
9640;DHT22;51745;50.872;4.732;2023-04-03T09:16:17;6.00;99.90
9640;DHT22;51745;50.872;4.732;2023-04-03T09:19:09;6.20;99.90
9640;DHT22;51745;50.872;4.732;2023-04-03T09:21:57;6.20;99.90
9640;DHT22;51745;50.872;4.732;2023-04-03T09:24:48;6.20;99.90
9640;DHT22;51745;50.872;4.732;2023-04-03T09:27:38;6.40;99.90
9640;DHT22;51745;50.872;4.732;2023-04-03T09:30:27;6.30;99.90
9640;DHT22;51745;50.872;4.732;2023-04-03T09:33:15;6.40;99.90
9640;DHT22;51745;50.872;4.732;2023-04-03T09:36:06;6.40;99.90
9640;DHT22;51745;50.872;4.732;2023-04-03T09:39:02;8.40;99.90
9640;DHT22;51745;50.872;4.732;2023-04-03T09:41:57;6.50;99.90
9640;DHT22;51745;50.872;4.732;2023-04-03T09:44:54;6.80;99.90
9640;DHT22;51745;50.872;4.732;2023-04-03T09:47:42;4.10;99.90
9640;DHT22;51745;50.872;4.732;2023-04-03T09:50:31;8.30;99.90
9640;DHT22;51745;50.872;4.732;2023-04-03T09:53:24;6.80;99.90
9640;DHT22;51745;50.872;4.732;2023-04-03T09:56:20;7.00;99.90
9640;DHT22;51745;50.872;4.732;2023-04-03T09:59:12;7.20;99.90
9640;DHT22;51745;50.872;4.732;2023-04-03T10:02:21;7.30;99.90
9640;DHT22;51745;50.872;4.732;2023-04-03T10:05:27;7.40;99.90
9640;DHT22;51745;50.872;4.732;2023-04-03T10:08:23;7.70;99.90
9640;DHT22;51745;50.872;4.732;2023-04-03T10:11:12;8.10;99.90
9640;DHT22;51745;50.872;4.732;2023-04-03T10:14:01;7.70;99.90
9640;DHT22;51745;50.872;4.732;2023-04-03T10:16:56;8.20;99.90
9640;DHT22;51745;50.872;4.732;2023-04-03T10:19:49;8.20;99.90
9640;DHT22;51745;50.872;4.732;2023-04-03T10:22:42;8.10;99.90
9640;DHT22;51745;50.872;4.732;2023-04-03T10:25:35;8.00;99.90
9640;DHT22;51745;50.872;4.732;2023-04-03T10:28:25;7.80;99.90
9640;DHT22;51745;50.872;4.732;2023-04-03T10:31:17;7.80;99.90
9640;DHT22;51745;50.872;4.732;2023-04-03T10:34:11;8.00;99.90
9640;DHT22;51745;50.872;4.732;2023-04-03T10:37:04;7.90;99.90
9640;DHT22;51745;50.872;4.732;2023-04-03T10:39:56;7.90;99.90
9640;DHT22;51745;50.872;4.732;2023-04-03T10:42:46;8.20;99.90
9640;DHT22;51745;50.872;4.732;2023-04-03T10:45:43;8.00;99.90
9640;DHT22;51745;50.872;4.732;2023-04-03T10:48:40;8.30;99.90
9640;DHT22;51745;50.872;4.732;2023-04-03T10:51:29;8.00;99.90
9640;DHT22;51745;50.872;4.732;2023-04-03T10:54:20;7.90;99.90
9640;DHT22;51745;50.872;4.732;2023-04-03T10:57:11;7.90;99.90
9640;DHT22;51745;50.872;4.732;2023-04-03T10:59:59;8.00;99.90
9640;DHT22;51745;50.872;4.732;2023-04-03T11:02:52;8.10;99.90
9640;DHT22;51745;50.872;4.732;2023-04-03T11:05:47;8.90;99.90
9640;DHT22;51745;50.872;4.732;2023-04-03T11:08:37;8.50;99.90
9640;DHT22;51745;50.872;4.732;2023-04-03T11:11:29;8.50;99.90
9640;DHT22;51745;50.872;4.732;2023-04-03T11:14:21;8.20;99.90
9640;DHT22;51745;50.872;4.732;2023-04-03T11:17:15;8.40;99.90
9640;DHT22;51745;50.872;4.732;2023-04-03T11:20:10;8.50;99.90
9640;DHT22;51745;50.872;4.732;2023-04-03T11:23:05;8.40;99.90
9640;DHT22;51745;50.872;4.732;2023-04-03T11:25:53;8.40;99.90
9640;DHT22;51745;50.872;4.732;2023-04-03T11:28:43;8.40;99.90
9640;DHT22;51745;50.872;4.732;2023-04-03T11:31:35;8.40;99.90
9640;DHT22;51745;50.872;4.732;2023-04-03T11:34:29;8.90;99.90
9640;DHT22;51745;50.872;4.732;2023-04-03T11:37:22;8.90;99.90
9640;DHT22;51745;50.872;4.732;2023-04-03T11:40:18;8.90;99.90
9640;DHT22;51745;50.872;4.732;2023-04-03T11:43:16;8.80;99.90
9640;DHT22;51745;50.872;4.732;2023-04-03T11:46:08;9.00;99.90
9640;DHT22;51745;50.872;4.732;2023-04-03T11:48:56;8.70;99.90
9640;DHT22;51745;50.872;4.732;2023-04-03T11:51:44;8.70;99.90
9640;DHT22;51745;50.872;4.732;2023-04-03T11:54:48;9.10;99.90
9640;DHT22;51745;50.872;4.732;2023-04-03T12:00:55;11.10;99.90
9640;DHT22;51745;50.872;4.732;2023-04-03T12:09:56;9.60;97.90
9640;DHT22;51745;50.872;4.732;2023-04-03T12:15:53;9.50;96.50
9640;DHT22;51745;50.872;4.732;2023-04-03T12:18:42;9.40;96.40
9640;DHT22;51745;50.872;4.732;2023-04-03T12:24:37;9.60;95.30
9640;DHT22;51745;50.872;4.732;2023-04-03T12:27:28;10.20;96.90
9640;DHT22;51745;50.872;4.732;2023-04-03T12:30:21;9.90;94.90
9640;DHT22;51745;50.872;4.732;2023-04-03T12:33:13;10.00;94.90
9640;DHT22;51745;50.872;4.732;2023-04-03T12:36:06;9.30;92.10
9640;DHT22;51745;50.872;4.732;2023-04-03T12:39:00;9.60;92.70
9640;DHT22;51745;50.872;4.732;2023-04-03T12:41:51;8.90;92.40
9640;DHT22;51745;50.872;4.732;2023-04-03T12:44:46;10.20;91.90
9640;DHT22;51745;50.872;4.732;2023-04-03T12:47:37;10.10;90.90
9640;DHT22;51745;50.872;4.732;2023-04-03T12:50:30;12.50;92.10
9640;DHT22;51745;50.872;4.732;2023-04-03T12:53:19;10.40;90.80
9640;DHT22;51745;50.872;4.732;2023-04-03T12:56:19;10.40;90.20
9640;DHT22;51745;50.872;4.732;2023-04-03T12:59:14;10.40;90.70
9640;DHT22;51745;50.872;4.732;2023-04-03T13:02:08;10.70;91.20
9640;DHT22;51745;50.872;4.732;2023-04-03T13:04:59;10.20;90.20
9640;DHT22;51745;50.872;4.732;2023-04-03T13:07:56;10.20;91.40
9640;DHT22;51745;50.872;4.732;2023-04-03T13:10:59;10.20;91.90
9640;DHT22;51745;50.872;4.732;2023-04-03T13:13:55;10.30;91.80
9640;DHT22;51745;50.872;4.732;2023-04-03T13:16:52;10.20;91.70
9640;DHT22;51745;50.872;4.732;2023-04-03T13:19:41;10.50;92.80
9640;DHT22;51745;50.872;4.732;2023-04-03T13:22:30;11.40;93.00
9640;DHT22;51745;50.872;4.732;2023-04-03T13:25:21;10.70;92.60
9640;DHT22;51745;50.872;4.732;2023-04-03T13:28:10;10.70;91.60
9640;DHT22;51745;50.872;4.732;2023-04-03T13:31:02;10.70;91.20
9640;DHT22;51745;50.872;4.732;2023-04-03T13:33:52;10.50;91.70
9640;DHT22;51745;50.872;4.732;2023-04-03T13:36:43;10.60;90.20
9640;DHT22;51745;50.872;4.732;2023-04-03T13:39:32;10.60;89.30
9640;DHT22;51745;50.872;4.732;2023-04-03T13:42:21;10.70;88.70
9640;DHT22;51745;50.872;4.732;2023-04-03T13:45:16;11.00;87.00
9640;DHT22;51745;50.872;4.732;2023-04-03T13:48:09;11.40;85.40
9640;DHT22;51745;50.872;4.732;2023-04-03T13:51:17;11.20;84.10
9640;DHT22;51745;50.872;4.732;2023-04-03T13:54:16;11.00;85.40
9640;DHT22;51745;50.872;4.732;2023-04-03T13:57:11;11.20;84.10
9640;DHT22;51745;50.872;4.732;2023-04-03T13:59:59;11.40;81.70
9640;DHT22;51745;50.872;4.732;2023-04-03T14:02:56;11.50;80.80
9640;DHT22;51745;50.872;4.732;2023-04-03T14:05:44;12.00;83.00
9640;DHT22;51745;50.872;4.732;2023-04-03T14:08:33;11.80;83.10
9640;DHT22;51745;50.872;4.732;2023-04-03T14:11:30;11.80;83.40
9640;DHT22;51745;50.872;4.732;2023-04-03T14:14:21;11.70;80.70
9640;DHT22;51745;50.872;4.732;2023-04-03T14:17:10;14.40;85.30
9640;DHT22;51745;50.872;4.732;2023-04-03T14:20:13;10.30;79.00
9640;DHT22;51745;50.872;4.732;2023-04-03T14:23:02;12.10;80.50
9640;DHT22;51745;50.872;4.732;2023-04-03T14:25:49;11.90;82.80
9640;DHT22;51745;50.872;4.732;2023-04-03T14:28:38;11.80;82.80
9640;DHT22;51745;50.872;4.732;2023-04-03T14:31:29;11.80;83.20
9640;DHT22;51745;50.872;4.732;2023-04-03T14:34:17;11.40;84.50
9640;DHT22;51745;50.872;4.732;2023-04-03T14:37:05;11.60;83.40
9640;DHT22;51745;50.872;4.732;2023-04-03T14:39:57;11.30;82.70
9640;DHT22;51745;50.872;4.732;2023-04-03T14:42:45;11.00;83.50
9640;DHT22;51745;50.872;4.732;2023-04-03T14:45:36;11.00;83.90
9640;DHT22;51745;50.872;4.732;2023-04-03T14:48:24;10.80;84.20
9640;DHT22;51745;50.872;4.732;2023-04-03T14:51:13;10.40;84.80
9640;DHT22;51745;50.872;4.732;2023-04-03T14:54:02;10.70;85.10
9640;DHT22;51745;50.872;4.732;2023-04-03T14:56:53;10.50;85.60
9640;DHT22;51745;50.872;4.732;2023-04-03T14:59:41;10.50;86.40
9640;DHT22;51745;50.872;4.732;2023-04-03T15:02:31;10.20;85.20
9640;DHT22;51745;50.872;4.732;2023-04-03T15:05:20;10.00;87.90
9640;DHT22;51745;50.872;4.732;2023-04-03T15:08:13;10.30;87.30
9640;DHT22;51745;50.872;4.732;2023-04-03T15:11:04;11.20;90.00
9640;DHT22;51745;50.872;4.732;2023-04-03T15:13:53;12.00;90.40
9640;DHT22;51745;50.872;4.732;2023-04-03T15:16:40;10.40;87.70
9640;DHT22;51745;50.872;4.732;2023-04-03T15:19:29;10.90;90.70
9640;DHT22;51745;50.872;4.732;2023-04-03T15:22:19;10.90;87.60
9640;DHT22;51745;50.872;4.732;2023-04-03T15:25:08;11.60;90.00
9640;DHT22;51745;50.872;4.732;2023-04-03T15:27:56;10.90;90.40
9640;DHT22;51745;50.872;4.732;2023-04-03T15:30:46;10.70;88.70
9640;DHT22;51745;50.872;4.732;2023-04-03T15:33:34;10.70;88.40
9640;DHT22;51745;50.872;4.732;2023-04-03T15:36:23;10.60;88.70
9640;DHT22;51745;50.872;4.732;2023-04-03T15:39:20;10.50;87.30
9640;DHT22;51745;50.872;4.732;2023-04-03T15:42:09;10.70;88.90
9640;DHT22;51745;50.872;4.732;2023-04-03T15:44:59;10.50;90.00
9640;DHT22;51745;50.872;4.732;2023-04-03T15:47:47;10.50;91.20
9640;DHT22;51745;50.872;4.732;2023-04-03T15:50:35;13.10;92.90
9640;DHT22;51745;50.872;4.732;2023-04-03T15:53:24;12.90;92.50
9640;DHT22;51745;50.872;4.732;2023-04-03T15:56:12;12.90;91.70
9640;DHT22;51745;50.872;4.732;2023-04-03T15:58:59;10.70;90.50
9640;DHT22;51745;50.872;4.732;2023-04-03T16:01:51;10.70;90.20
9640;DHT22;51745;50.872;4.732;2023-04-03T16:04:39;10.00;90.10
9640;DHT22;51745;50.872;4.732;2023-04-03T16:07:27;10.50;91.90
9640;DHT22;51745;50.872;4.732;2023-04-03T16:10:17;10.40;89.90
9640;DHT22;51745;50.872;4.732;2023-04-03T16:13:06;12.90;91.40
9640;DHT22;51745;50.872;4.732;2023-04-03T16:15:54;11.50;91.70
9640;DHT22;51745;50.872;4.732;2023-04-03T16:18:43;10.20;90.60
9640;DHT22;51745;50.872;4.732;2023-04-03T16:21:32;10.70;90.50
9640;DHT22;51745;50.872;4.732;2023-04-03T16:24:20;13.20;91.40
9640;DHT22;51745;50.872;4.732;2023-04-03T16:27:11;10.40;90.80
9640;DHT22;51745;50.872;4.732;2023-04-03T16:30:01;10.50;90.50
9640;DHT22;51745;50.872;4.732;2023-04-03T16:32:49;10.80;90.60
9640;DHT22;51745;50.872;4.732;2023-04-03T16:35:37;10.80;89.50
9640;DHT22;51745;50.872;4.732;2023-04-03T16:38:25;9.90;90.60
9640;DHT22;51745;50.872;4.732;2023-04-03T16:41:15;10.00;91.20
9640;DHT22;51745;50.872;4.732;2023-04-03T16:44:04;9.80;91.10
9640;DHT22;51745;50.872;4.732;2023-04-03T16:46:56;9.70;90.70
9640;DHT22;51745;50.872;4.732;2023-04-03T16:49:47;9.70;92.00
9640;DHT22;51745;50.872;4.732;2023-04-03T16:52:36;9.80;92.80
9640;DHT22;51745;50.872;4.732;2023-04-03T16:55:26;10.00;90.70
9640;DHT22;51745;50.872;4.732;2023-04-03T16:58:13;9.80;91.60
9640;DHT22;51745;50.872;4.732;2023-04-03T17:01:10;9.50;90.90
9640;DHT22;51745;50.872;4.732;2023-04-03T17:03:58;9.40;91.00
9640;DHT22;51745;50.872;4.732;2023-04-03T17:06:46;10.50;93.60
9640;DHT22;51745;50.872;4.732;2023-04-03T17:09:33;9.30;91.10
9640;DHT22;51745;50.872;4.732;2023-04-03T17:12:21;9.30;92.20
9640;DHT22;51745;50.872;4.732;2023-04-03T17:15:09;9.10;91.70
9640;DHT22;51745;50.872;4.732;2023-04-03T17:17:59;9.10;92.00
9640;DHT22;51745;50.872;4.732;2023-04-03T17:20:47;9.00;92.50
9640;DHT22;51745;50.872;4.732;2023-04-03T17:23:34;8.90;92.20
9640;DHT22;51745;50.872;4.732;2023-04-03T17:26:23;8.90;93.50
9640;DHT22;51745;50.872;4.732;2023-04-03T17:29:14;9.20;94.00
9640;DHT22;51745;50.872;4.732;2023-04-03T17:32:02;8.80;93.40
9640;DHT22;51745;50.872;4.732;2023-04-03T17:34:51;8.60;93.30
9640;DHT22;51745;50.872;4.732;2023-04-03T17:37:39;10.00;92.90
9640;DHT22;51745;50.872;4.732;2023-04-03T17:40:27;6.10;92.70
9640;DHT22;51745;50.872;4.732;2023-04-03T17:43:16;8.40;93.40
9640;DHT22;51745;50.872;4.732;2023-04-03T17:46:04;8.20;93.20
9640;DHT22;51745;50.872;4.732;2023-04-03T17:48:54;8.20;93.00
9640;DHT22;51745;50.872;4.732;2023-04-03T17:51:46;8.10;92.60
9640;DHT22;51745;50.872;4.732;2023-04-03T17:54:34;8.00;93.40
9640;DHT22;51745;50.872;4.732;2023-04-03T17:57:22;8.00;94.20
9640;DHT22;51745;50.872;4.732;2023-04-03T18:00:10;7.90;93.70
9640;DHT22;51745;50.872;4.732;2023-04-03T18:02:58;7.70;94.40
9640;DHT22;51745;50.872;4.732;2023-04-03T18:05:46;8.60;94.50
9640;DHT22;51745;50.872;4.732;2023-04-03T18:08:39;7.30;94.40
9640;DHT22;51745;50.872;4.732;2023-04-03T18:11:27;7.50;95.10
9640;DHT22;51745;50.872;4.732;2023-04-03T18:14:16;7.00;94.90
9640;DHT22;51745;50.872;4.732;2023-04-03T18:17:04;7.30;95.10
9640;DHT22;51745;50.872;4.732;2023-04-03T18:19:53;7.30;95.30
9640;DHT22;51745;50.872;4.732;2023-04-03T18:22:42;7.20;95.60
9640;DHT22;51745;50.872;4.732;2023-04-03T18:25:31;7.10;96.20
9640;DHT22;51745;50.872;4.732;2023-04-03T18:28:18;7.00;96.00
9640;DHT22;51745;50.872;4.732;2023-04-03T18:31:06;7.00;96.00
9640;DHT22;51745;50.872;4.732;2023-04-03T18:34:03;6.80;96.20
9640;DHT22;51745;50.872;4.732;2023-04-03T18:36:51;6.80;96.80
9640;DHT22;51745;50.872;4.732;2023-04-03T18:39:39;8.90;97.20
9640;DHT22;51745;50.872;4.732;2023-04-03T18:42:30;6.70;97.00
9640;DHT22;51745;50.872;4.732;2023-04-03T18:45:21;6.60;96.80